Time,TemperatureF,DewpointF,PressureIn,WindDirection,WindDirectionDegrees,WindSpeedMPH,WindSpeedGustMPH,Humidity,HourlyPrecipIn,Conditions,Clouds,dailyrainin,SoftwareType,DateUTC
2013-06-04 00:01:00,45.4,43.7,28.15,West,266,0.0,0.0,94,0.00,,,7.55,WUHU216DAVISWMX,2013-06-04 04:01:00,
2013-06-04 00:02:00,45.4,44.0,28.15,West,266,0.0,0.0,95,0.00,,,7.55,WUHU216DAVISWMX,2013-06-04 04:02:00,
2013-06-04 00:07:00,45.1,43.4,28.15,West,266,0.0,0.0,94,0.00,,,7.55,WUHU216DAVISWMX,2013-06-04 04:07:00,
2013-06-04 00:12:00,44.8,43.4,28.15,West,266,0.0,0.0,95,0.00,,,7.55,WUHU216DAVISWMX,2013-06-04 04:12:00,
2013-06-04 00:17:00,44.7,43.3,28.15,West,266,0.0,0.0,95,0.00,,,7.55,WUHU216DAVISWMX,2013-06-04 04:17:00,
2013-06-04 00:22:00,44.6,43.5,28.15,West,266,0.0,1.0,96,0.00,,,7.55,WUHU216DAVISWMX,2013-06-04 04:22:00,
2013-06-04 00:27:00,44.4,43.0,28.15,West,266,0.0,1.0,95,0.00,,,7.55,WUHU216DAVISWMX,2013-06-04 04:27:00,
2013-06-04 00:32:00,44.2,42.8,28.15,West,267,0.0,0.0,95,0.00,,,7.55,WUHU216DAVISWMX,2013-06-04 04:32:00,
2013-06-04 00:37:00,44.0,42.6,28.15,West,267,0.0,0.0,95,0.00,,,7.55,WUHU216DAVISWMX,2013-06-04 04:37:00,
2013-06-04 00:42:00,43.6,42.2,28.15,West,267,0.0,0.0,95,0.00,,,7.55,WUHU216DAVISWMX,2013-06-04 04:42:00,
2013-06-04 00:47:00,43.3,41.6,28.15,West,267,0.0,0.0,94,0.00,,,7.55,WUHU216DAVISWMX,2013-06-04 04:47:00,
2013-06-04 00:52:00,44.0,42.1,28.15,West,268,0.0,5.0,93,0.00,,,7.55,WUHU216DAVISWMX,2013-06-04 04:52:00,
2013-06-04 00:57:00,44.2,41.4,28.15,West,269,0.0,5.0,90,0.00,,,7.55,WUHU216DAVISWMX,2013-06-04 04:57:00,
2013-06-04 01:02:00,44.3,41.5,28.15,West,268,0.0,3.0,90,0.00,,,7.55,WUHU216DAVISWMX,2013-06-04 05:02:00,
2013-06-04 01:07:00,43.7,41.2,28.15,West,268,0.0,0.0,91,0.00,,,7.55,WUHU216DAVISWMX,2013-06-04 05:07:00,
2013-06-04 01:12:00,42.9,40.7,28.15,West,269,0.0,0.0,92,0.00,,,7.55,WUHU216DAVISWMX,2013-06-04 05:12:00,
2013-06-04 01:17:00,42.5,40.9,28.15,West,269,0.0,0.0,94,0.00,,,7.55,WUHU216DAVISWMX,2013-06-04 05:17:00,
2013-06-04 01:22:00,42.4,40.8,28.15,West,269,0.0,0.0,94,0.00,,,7.55,WUHU216DAVISWMX,2013-06-04 05:22:00,
2013-06-04 01:27:00,42.0,40.6,28.15,West,269,0.0,0.0,95,0.00,,,7.55,WUHU216DAVISWMX,2013-06-04 05:27:00,
2013-06-04 01:32:00,41.8,40.2,28.15,West,269,0.0,0.0,94,0.00,,,7.55,WUHU216DAVISWMX,2013-06-04 05:32:00,
2013-06-04 01:37:00,41.3,39.9,28.15,West,269,0.0,0.0,95,0.00,,,7.55,WUHU216DAVISWMX,2013-06-04 05:37:00,
2013-06-04 01:42:00,41.4,39.8,28.16,West,269,0.0,0.0,94,0.00,,,7.55,WUHU216DAVISWMX,2013-06-04 05:42:00,
2013-06-04 01:47:00,41.2,40.1,28.16,West,269,0.0,0.0,96,0.00,,,7.55,WUHU216DAVISWMX,2013-06-04 05:47:00,
2013-06-04 01:52:00,41.2,39.8,28.16,West,269,0.0,0.0,95,0.00,,,7.55,WUHU216DAVISWMX,2013-06-04 05:52:00,
2013-06-04 01:57:00,40.6,39.2,28.16,West,269,0.0,0.0,95,0.00,,,7.55,WUHU216DAVISWMX,2013-06-04 05:57:00,
2013-06-04 02:02:00,40.5,39.1,28.16,West,269,0.0,0.0,95,0.00,,,7.55,WUHU216DAVISWMX,2013-06-04 06:02:00,
2013-06-04 02:07:00,40.4,39.0,28.16,West,269,0.0,0.0,95,0.00,,,7.55,WUHU216DAVISWMX,2013-06-04 06:07:00,
2013-06-04 02:12:00,40.3,38.7,28.16,West,265,0.0,0.0,94,0.00,,,7.55,WUHU216DAVISWMX,2013-06-04 06:12:00,
2013-06-04 02:17:00,40.3,39.2,28.16,West,264,0.0,0.0,96,0.00,,,7.55,WUHU216DAVISWMX,2013-06-04 06:17:00,
2013-06-04 02:22:00,40.3,39.2,28.16,West,264,0.0,0.0,96,0.00,,,7.55,WUHU216DAVISWMX,2013-06-04 06:22:00,
2013-06-04 02:27:00,40.0,38.6,28.16,West,264,0.0,0.0,95,0.00,,,7.55,WUHU216DAVISWMX,2013-06-04 06:27:00,
2013-06-04 02:32:00,39.2,37.8,28.16,West,265,0.0,0.0,95,0.00,,,7.55,WUHU216DAVISWMX,2013-06-04 06:32:00,
2013-06-04 02:37:00,39.0,37.4,28.16,West,265,0.0,0.0,94,0.00,,,7.55,WUHU216DAVISWMX,2013-06-04 06:37:00,
2013-06-04 02:42:00,38.7,37.3,28.16,West,265,0.0,1.0,95,0.00,,,7.55,WUHU216DAVISWMX,2013-06-04 06:42:00,
2013-06-04 02:47:00,38.6,37.0,28.16,West,265,0.0,1.0,94,0.00,,,7.55,WUHU216DAVISWMX,2013-06-04 06:47:00,
2013-06-04 02:52:00,38.3,37.0,28.17,West,265,0.0,0.0,95,0.00,,,7.55,WUHU216DAVISWMX,2013-06-04 06:52:00,
2013-06-04 02:57:00,38.3,37.0,28.16,West,265,0.0,0.0,95,0.00,,,7.55,WUHU216DAVISWMX,2013-06-04 06:57:00,
2013-06-04 03:02:00,38.3,37.0,28.17,West,265,0.0,0.0,95,0.00,,,7.55,WUHU216DAVISWMX,2013-06-04 07:02:00,
2013-06-04 03:07:00,38.3,37.0,28.16,West,265,0.0,0.0,95,0.00,,,7.55,WUHU216DAVISWMX,2013-06-04 07:07:00,
2013-06-04 03:12:00,38.0,36.7,28.16,West,265,0.0,0.0,95,0.00,,,7.55,WUHU216DAVISWMX,2013-06-04 07:12:00,
2013-06-04 03:17:00,37.7,36.4,28.16,West,265,0.0,0.0,95,0.00,,,7.55,WUHU216DAVISWMX,2013-06-04 07:17:00,
2013-06-04 03:22:00,37.8,36.5,28.16,West,265,0.0,0.0,95,0.00,,,7.55,WUHU216DAVISWMX,2013-06-04 07:22:00,
2013-06-04 03:27:00,37.9,36.8,28.16,West,264,0.0,0.0,96,0.00,,,7.55,WUHU216DAVISWMX,2013-06-04 07:27:00,
2013-06-04 03:32:00,37.5,36.7,28.17,West,265,0.0,0.0,97,0.00,,,7.55,WUHU216DAVISWMX,2013-06-04 07:32:00,
2013-06-04 03:37:00,36.9,36.1,28.17,West,266,0.0,0.0,97,0.00,,,7.55,WUHU216DAVISWMX,2013-06-04 07:37:00,
2013-06-04 03:42:00,37.1,36.3,28.17,West,265,0.0,0.0,97,0.00,,,7.55,WUHU216DAVISWMX,2013-06-04 07:42:00,
2013-06-04 03:47:00,36.9,36.1,28.17,West,265,0.0,0.0,97,0.00,,,7.55,WUHU216DAVISWMX,2013-06-04 07:47:00,
2013-06-04 03:52:00,36.8,36.0,28.17,West,265,0.0,0.0,97,0.00,,,7.55,WUHU216DAVISWMX,2013-06-04 07:52:00,
2013-06-04 03:57:00,36.7,35.9,28.17,West,265,0.0,0.0,97,0.00,,,7.55,WUHU216DAVISWMX,2013-06-04 07:57:00,
2013-06-04 04:02:00,36.3,35.5,28.17,West,266,0.0,0.0,97,0.00,,,7.55,WUHU216DAVISWMX,2013-06-04 08:02:00,
2013-06-04 04:07:00,36.4,35.6,28.18,West,266,0.0,0.0,97,0.00,,,7.55,WUHU216DAVISWMX,2013-06-04 08:07:00,
2013-06-04 04:12:00,36.0,35.2,28.17,West,266,0.0,0.0,97,0.00,,,7.55,WUHU216DAVISWMX,2013-06-04 08:12:00,
2013-06-04 04:17:00,35.9,35.1,28.17,West,266,0.0,0.0,97,0.00,,,7.55,WUHU216DAVISWMX,2013-06-04 08:17:00,
2013-06-04 04:22:00,36.1,35.0,28.18,West,266,0.0,0.0,96,0.00,,,7.55,WUHU216DAVISWMX,2013-06-04 08:22:00,
2013-06-04 04:27:00,36.1,35.3,28.18,West,265,0.0,0.0,97,0.00,,,7.55,WUHU216DAVISWMX,2013-06-04 08:27:00,
2013-06-04 04:32:00,36.0,35.2,28.18,West,265,0.0,0.0,97,0.00,,,7.55,WUHU216DAVISWMX,2013-06-04 08:32:00,
2013-06-04 04:37:00,35.8,35.0,28.18,West,265,0.0,0.0,97,0.00,,,7.55,WUHU216DAVISWMX,2013-06-04 08:37:00,
2013-06-04 04:42:00,35.6,34.5,28.18,West,266,0.0,0.0,96,0.00,,,7.55,WUHU216DAVISWMX,2013-06-04 08:42:00,
2013-06-04 04:47:00,34.9,33.8,28.18,West,266,0.0,0.0,96,0.00,,,7.55,WUHU216DAVISWMX,2013-06-04 08:47:00,
2013-06-04 04:52:00,35.2,34.4,28.18,West,265,0.0,0.0,97,0.00,,,7.55,WUHU216DAVISWMX,2013-06-04 08:52:00,
2013-06-04 04:57:00,35.2,34.4,28.18,West,265,0.0,0.0,97,0.00,,,7.55,WUHU216DAVISWMX,2013-06-04 08:57:00,
2013-06-04 05:02:00,34.9,34.1,28.19,West,266,0.0,0.0,97,0.00,,,7.55,WUHU216DAVISWMX,2013-06-04 09:02:00,
2013-06-04 05:07:00,34.6,33.8,28.19,West,266,0.0,0.0,97,0.00,,,7.55,WUHU216DAVISWMX,2013-06-04 09:07:00,
2013-06-04 05:12:00,34.3,33.5,28.19,West,266,0.0,0.0,97,0.00,,,7.55,WUHU216DAVISWMX,2013-06-04 09:12:00,
2013-06-04 05:17:00,34.2,33.4,28.19,West,266,0.0,0.0,97,0.00,,,7.55,WUHU216DAVISWMX,2013-06-04 09:17:00,
2013-06-04 05:22:00,34.3,33.2,28.19,West,266,0.0,0.0,96,0.00,,,7.55,WUHU216DAVISWMX,2013-06-04 09:22:00,
2013-06-04 05:27:00,34.5,33.7,28.19,West,265,0.0,0.0,97,0.00,,,7.55,WUHU216DAVISWMX,2013-06-04 09:27:00,
2013-06-04 05:32:00,34.4,33.6,28.19,West,266,0.0,0.0,97,0.00,,,7.55,WUHU216DAVISWMX,2013-06-04 09:32:00,
2013-06-04 05:37:00,34.0,33.2,28.19,West,266,0.0,0.0,97,0.00,,,7.55,WUHU216DAVISWMX,2013-06-04 09:37:00,
2013-06-04 05:42:00,33.5,32.7,28.20,West,266,0.0,0.0,97,0.00,,,7.55,WUHU216DAVISWMX,2013-06-04 09:42:00,
2013-06-04 05:47:00,32.6,31.3,28.20,West,267,0.0,0.0,95,0.01,,,7.56,WUHU216DAVISWMX,2013-06-04 09:47:00,
2013-06-04 05:52:00,32.9,32.1,28.20,West,266,0.0,0.0,97,0.01,,,7.56,WUHU216DAVISWMX,2013-06-04 09:52:00,
2013-06-04 05:57:00,33.3,32.5,28.20,West,266,0.0,0.0,97,0.01,,,7.56,WUHU216DAVISWMX,2013-06-04 09:57:00,
2013-06-04 06:02:00,33.1,32.3,28.20,West,266,0.0,0.0,97,0.01,,,7.56,WUHU216DAVISWMX,2013-06-04 10:02:00,
2013-06-04 06:07:00,32.8,32.0,28.20,West,266,0.0,0.0,97,0.01,,,7.56,WUHU216DAVISWMX,2013-06-04 10:07:00,
2013-06-04 06:12:00,32.4,31.6,28.20,West,267,0.0,0.0,97,0.01,,,7.56,WUHU216DAVISWMX,2013-06-04 10:12:00,
2013-06-04 06:17:00,33.1,32.3,28.20,West,266,0.0,0.0,97,0.01,,,7.56,WUHU216DAVISWMX,2013-06-04 10:17:00,
2013-06-04 06:22:00,31.9,31.1,28.20,West,267,0.0,0.0,97,0.01,,,7.56,WUHU216DAVISWMX,2013-06-04 10:22:00,
2013-06-04 06:27:00,32.3,31.5,28.20,West,267,0.0,0.0,97,0.01,,,7.56,WUHU216DAVISWMX,2013-06-04 10:27:00,
2013-06-04 06:32:00,31.8,31.0,28.20,West,267,0.0,0.0,97,0.01,,,7.56,WUHU216DAVISWMX,2013-06-04 10:32:00,
2013-06-04 06:37:00,30.6,29.8,28.21,West,268,0.0,0.0,97,0.01,,,7.56,WUHU216DAVISWMX,2013-06-04 10:37:00,
2013-06-04 06:42:00,32.2,31.4,28.21,West,267,0.0,0.0,97,0.01,,,7.56,WUHU216DAVISWMX,2013-06-04 10:42:00,
2013-06-04 06:47:00,32.6,31.8,28.20,West,267,0.0,0.0,97,0.00,,,7.56,WUHU216DAVISWMX,2013-06-04 10:47:00,
2013-06-04 06:52:00,33.8,33.0,28.21,West,266,0.0,0.0,97,0.00,,,7.56,WUHU216DAVISWMX,2013-06-04 10:52:00,
2013-06-04 06:57:00,33.6,33.1,28.20,West,266,0.0,0.0,98,0.00,,,7.56,WUHU216DAVISWMX,2013-06-04 10:57:00,
2013-06-04 07:02:00,32.8,32.3,28.21,West,268,0.0,0.0,98,0.00,,,7.56,WUHU216DAVISWMX,2013-06-04 11:02:00,
2013-06-04 07:07:00,33.7,32.9,28.21,West,267,0.0,0.0,97,0.00,,,7.56,WUHU216DAVISWMX,2013-06-04 11:07:00,
2013-06-04 07:12:00,35.4,34.9,28.21,West,264,0.0,0.0,98,0.00,,,7.56,WUHU216DAVISWMX,2013-06-04 11:12:00,
2013-06-04 07:17:00,33.9,33.4,28.21,West,267,0.0,0.0,98,0.00,,,7.56,WUHU216DAVISWMX,2013-06-04 11:17:00,
2013-06-04 07:22:00,34.4,33.6,28.21,West,266,0.0,0.0,97,0.00,,,7.56,WUHU216DAVISWMX,2013-06-04 11:22:00,
2013-06-04 07:27:00,35.4,34.9,28.21,West,265,0.0,0.0,98,0.00,,,7.56,WUHU216DAVISWMX,2013-06-04 11:27:00,
2013-06-04 07:32:00,35.3,35.0,28.21,West,266,0.0,0.0,99,0.00,,,7.56,WUHU216DAVISWMX,2013-06-04 11:32:00,
2013-06-04 07:37:00,35.7,35.4,28.21,West,267,0.0,0.0,99,0.00,,,7.56,WUHU216DAVISWMX,2013-06-04 11:37:00,
2013-06-04 07:42:00,37.1,37.1,28.22,West,265,0.0,0.0,100,0.00,,,7.56,WUHU216DAVISWMX,2013-06-04 11:42:00,
2013-06-04 07:47:00,37.4,37.4,28.22,West,266,0.0,0.0,100,0.00,,,7.56,WUHU216DAVISWMX,2013-06-04 11:47:00,
2013-06-04 07:52:00,38.1,38.1,28.22,West,266,0.0,0.0,100,0.00,,,7.56,WUHU216DAVISWMX,2013-06-04 11:52:00,
2013-06-04 07:57:00,38.4,38.4,28.22,West,265,0.0,0.0,100,0.00,,,7.56,WUHU216DAVISWMX,2013-06-04 11:57:00,
2013-06-04 08:02:00,38.3,38.3,28.22,West,266,0.0,0.0,100,0.00,,,7.56,WUHU216DAVISWMX,2013-06-04 12:02:00,
2013-06-04 08:07:00,38.6,38.6,28.22,West,266,0.0,0.0,100,0.00,,,7.56,WUHU216DAVISWMX,2013-06-04 12:07:00,
2013-06-04 08:12:00,39.4,39.4,28.22,West,265,0.0,0.0,100,0.00,,,7.56,WUHU216DAVISWMX,2013-06-04 12:12:00,
2013-06-04 08:17:00,39.9,39.9,28.22,West,266,0.0,0.0,100,0.00,,,7.56,WUHU216DAVISWMX,2013-06-04 12:17:00,
2013-06-04 08:22:00,41.2,41.2,28.23,West,265,0.0,1.0,100,0.00,,,7.56,WUHU216DAVISWMX,2013-06-04 12:22:00,
2013-06-04 08:27:00,41.7,41.7,28.23,West,265,0.0,1.0,100,0.00,,,7.56,WUHU216DAVISWMX,2013-06-04 12:27:00,
2013-06-04 08:32:00,42.7,42.7,28.23,West,266,0.0,1.0,100,0.00,,,7.56,WUHU216DAVISWMX,2013-06-04 12:32:00,
2013-06-04 08:37:00,43.4,43.4,28.23,West,266,0.0,1.0,100,0.00,,,7.56,WUHU216DAVISWMX,2013-06-04 12:37:00,
2013-06-04 08:42:00,44.6,44.6,28.23,WSW,256,0.0,3.0,100,0.00,,,7.56,WUHU216DAVISWMX,2013-06-04 12:42:00,
2013-06-04 08:47:00,45.3,45.3,28.24,SSW,193,1.0,5.0,100,0.00,,,7.56,WUHU216DAVISWMX,2013-06-04 12:47:00,
2013-06-04 08:52:00,45.7,44.6,28.24,SSW,202,0.0,5.0,96,0.00,,,7.56,WUHU216DAVISWMX,2013-06-04 12:52:00,
2013-06-04 08:57:00,46.8,44.3,28.24,SSW,201,1.0,2.0,91,0.00,,,7.56,WUHU216DAVISWMX,2013-06-04 12:57:00,
2013-06-04 09:02:00,46.8,42.2,28.24,SE,126,0.0,4.0,84,0.00,,,7.56,WUHU216DAVISWMX,2013-06-04 13:02:00,
2013-06-04 09:07:00,47.1,41.6,28.24,ESE,122,0.0,4.0,81,0.00,,,7.56,WUHU216DAVISWMX,2013-06-04 13:07:00,
2013-06-04 09:12:00,47.9,41.4,28.24,ESE,120,0.0,1.0,78,0.00,,,7.56,WUHU216DAVISWMX,2013-06-04 13:12:00,
2013-06-04 09:17:00,47.8,41.0,28.24,ESE,122,0.0,1.0,77,0.00,,,7.56,WUHU216DAVISWMX,2013-06-04 13:17:00,
2013-06-04 09:22:00,47.6,40.1,28.25,SE,124,4.0,4.0,75,0.00,,,7.56,WUHU216DAVISWMX,2013-06-04 13:22:00,
2013-06-04 09:27:00,49.1,41.2,28.24,ESE,121,0.0,4.0,74,0.00,,,7.56,WUHU216DAVISWMX,2013-06-04 13:27:00,
2013-06-04 09:32:00,49.7,41.5,28.24,South,188,0.0,4.0,73,0.00,,,7.56,WUHU216DAVISWMX,2013-06-04 13:32:00,
2013-06-04 09:37:00,49.7,40.4,28.25,ENE,75,0.0,7.0,70,0.00,,,7.56,WUHU216DAVISWMX,2013-06-04 13:37:00,
2013-06-04 09:42:00,50.1,40.8,28.25,East,80,0.0,7.0,70,0.00,,,7.56,WUHU216DAVISWMX,2013-06-04 13:42:00,
2013-06-04 09:47:00,50.3,40.6,28.25,NE,44,7.0,7.0,69,0.00,,,7.56,WUHU216DAVISWMX,2013-06-04 13:47:00,
2013-06-04 09:52:00,50.5,40.4,28.25,NE,42,0.0,7.0,68,0.00,,,7.56,WUHU216DAVISWMX,2013-06-04 13:52:00,
2013-06-04 09:57:00,50.4,39.6,28.25,ENE,70,0.0,8.0,66,0.00,,,7.56,WUHU216DAVISWMX,2013-06-04 13:57:00,
2013-06-04 10:02:00,50.4,40.3,28.25,ESE,112,0.0,8.0,68,0.00,,,7.56,WUHU216DAVISWMX,2013-06-04 14:02:00,
2013-06-04 10:07:00,50.8,40.0,28.25,East,83,0.0,11.0,66,0.00,,,7.56,WUHU216DAVISWMX,2013-06-04 14:07:00,
2013-06-04 10:12:00,50.9,39.7,28.25,SE,137,0.0,11.0,65,0.00,,,7.56,WUHU216DAVISWMX,2013-06-04 14:12:00,
2013-06-04 10:17:00,51.2,40.0,28.25,NNW,333,0.0,7.0,65,0.00,,,7.56,WUHU216DAVISWMX,2013-06-04 14:17:00,
2013-06-04 10:22:00,51.7,40.4,28.25,NW,314,0.0,10.0,65,0.00,,,7.56,WUHU216DAVISWMX,2013-06-04 14:22:00,
2013-06-04 10:27:00,52.4,40.3,28.25,NNW,342,5.0,10.0,63,0.00,,,7.56,WUHU216DAVISWMX,2013-06-04 14:27:00,
2013-06-04 10:32:00,53.0,39.6,28.25,WNW,297,0.0,7.0,60,0.00,,,7.56,WUHU216DAVISWMX,2013-06-04 14:32:00,
2013-06-04 10:37:00,53.9,40.9,28.25,North,353,3.0,7.0,61,0.00,,,7.56,WUHU216DAVISWMX,2013-06-04 14:37:00,
2013-06-04 10:42:00,53.7,39.8,28.25,WNW,299,8.0,8.0,59,0.00,,,7.56,WUHU216DAVISWMX,2013-06-04 14:42:00,
2013-06-04 10:47:00,54.0,40.1,28.25,WNW,292,7.0,12.0,59,0.00,,,7.56,WUHU216DAVISWMX,2013-06-04 14:47:00,
2013-06-04 10:52:00,54.4,40.0,28.25,NNW,339,1.0,12.0,58,0.00,,,7.56,WUHU216DAVISWMX,2013-06-04 14:52:00,
2013-06-04 10:57:00,54.8,40.4,28.25,WNW,288,5.0,10.0,58,0.00,,,7.56,WUHU216DAVISWMX,2013-06-04 14:57:00,
2013-06-04 11:02:00,54.7,39.8,28.25,NW,309,5.0,10.0,57,0.00,,,7.56,WUHU216DAVISWMX,2013-06-04 15:02:00,
2013-06-04 11:07:00,55.0,39.7,28.25,WNW,299,0.0,8.0,56,0.00,,,7.56,WUHU216DAVISWMX,2013-06-04 15:07:00,
2013-06-04 11:12:00,55.2,40.3,28.25,NW,307,0.0,9.0,57,0.00,,,7.56,WUHU216DAVISWMX,2013-06-04 15:12:00,
2013-06-04 11:17:00,55.2,39.4,28.25,NNW,336,2.0,10.0,55,0.00,,,7.56,WUHU216DAVISWMX,2013-06-04 15:17:00,
2013-06-04 11:22:00,55.9,41.0,28.24,NE,49,0.0,10.0,57,0.00,,,7.56,WUHU216DAVISWMX,2013-06-04 15:22:00,
2013-06-04 11:27:00,55.7,39.4,28.24,NNW,338,4.0,9.0,54,0.00,,,7.56,WUHU216DAVISWMX,2013-06-04 15:27:00,
2013-06-04 11:32:00,55.8,39.9,28.24,SE,130,0.0,9.0,55,0.00,,,7.56,WUHU216DAVISWMX,2013-06-04 15:32:00,
2013-06-04 11:37:00,55.9,39.5,28.24,NW,320,4.0,10.0,54,0.00,,,7.56,WUHU216DAVISWMX,2013-06-04 15:37:00,
2013-06-04 11:42:00,55.3,39.0,28.24,NNW,327,0.0,10.0,54,0.00,,,7.56,WUHU216DAVISWMX,2013-06-04 15:42:00,
2013-06-04 11:47:00,55.6,39.3,28.24,WNW,301,8.0,9.0,54,0.00,,,7.56,WUHU216DAVISWMX,2013-06-04 15:47:00,
2013-06-04 11:52:00,55.4,39.6,28.24,NW,304,1.0,9.0,55,0.00,,,7.56,WUHU216DAVISWMX,2013-06-04 15:52:00,
2013-06-04 11:57:00,55.8,40.4,28.24,ENE,58,0.0,6.0,56,0.00,,,7.56,WUHU216DAVISWMX,2013-06-04 15:57:00,
2013-06-04 12:02:00,55.6,40.7,28.24,SE,124,0.0,6.0,57,0.00,,,7.56,WUHU216DAVISWMX,2013-06-04 16:02:00,
2013-06-04 12:07:00,56.5,39.6,28.24,NNW,339,0.0,6.0,53,0.00,,,7.56,WUHU216DAVISWMX,2013-06-04 16:07:00,
2013-06-04 12:12:00,55.4,38.6,28.24,North,350,0.0,7.0,53,0.00,,,7.56,WUHU216DAVISWMX,2013-06-04 16:12:00,
2013-06-04 12:17:00,55.7,38.4,28.24,WNW,293,4.0,8.0,52,0.00,,,7.56,WUHU216DAVISWMX,2013-06-04 16:17:00,
2013-06-04 12:22:00,55.6,37.8,28.23,NW,321,4.0,8.0,51,0.00,,,7.56,WUHU216DAVISWMX,2013-06-04 16:22:00,
2013-06-04 12:27:00,56.7,37.2,28.23,NNW,345,0.0,7.0,48,0.00,,,7.56,WUHU216DAVISWMX,2013-06-04 16:27:00,
2013-06-04 12:32:00,56.6,37.6,28.23,NW,306,0.0,7.0,49,0.00,,,7.56,WUHU216DAVISWMX,2013-06-04 16:32:00,
2013-06-04 12:37:00,56.2,37.3,28.23,NNE,26,0.0,9.0,49,0.00,,,7.56,WUHU216DAVISWMX,2013-06-04 16:37:00,
2013-06-04 12:42:00,56.2,38.3,28.23,NE,42,0.0,9.0,51,0.00,,,7.56,WUHU216DAVISWMX,2013-06-04 16:42:00,
2013-06-04 12:47:00,56.7,39.3,28.22,NNE,33,0.0,7.0,52,0.00,,,7.56,WUHU216DAVISWMX,2013-06-04 16:47:00,
2013-06-04 12:52:00,56.7,38.8,28.22,NNE,32,0.0,7.0,51,0.00,,,7.56,WUHU216DAVISWMX,2013-06-04 16:52:00,
2013-06-04 12:57:00,56.7,37.7,28.22,NE,38,0.0,7.0,49,0.00,,,7.56,WUHU216DAVISWMX,2013-06-04 16:57:00,
2013-06-04 13:02:00,56.8,37.8,28.22,NW,321,1.0,7.0,49,0.00,,,7.56,WUHU216DAVISWMX,2013-06-04 17:02:00,
2013-06-04 13:07:00,57.9,38.3,28.22,North,354,5.0,10.0,48,0.00,,,7.56,WUHU216DAVISWMX,2013-06-04 17:07:00,
2013-06-04 13:12:00,57.6,38.0,28.22,East,83,0.0,10.0,48,0.00,,,7.56,WUHU216DAVISWMX,2013-06-04 17:12:00,
2013-06-04 13:17:00,56.4,37.4,28.22,ESE,117,0.0,8.0,49,0.00,,,7.56,WUHU216DAVISWMX,2013-06-04 17:17:00,
2013-06-04 13:22:00,54.2,35.4,28.22,NNW,340,3.0,5.0,49,0.00,,,7.56,WUHU216DAVISWMX,2013-06-04 17:22:00,
2013-06-04 13:27:00,57.6,37.5,28.22,NNW,347,0.0,7.0,47,0.00,,,7.56,WUHU216DAVISWMX,2013-06-04 17:27:00,
2013-06-04 13:32:00,56.9,36.3,28.22,NW,323,5.0,7.0,46,0.00,,,7.56,WUHU216DAVISWMX,2013-06-04 17:32:00,
2013-06-04 13:37:00,58.7,37.3,28.22,West,279,5.0,11.0,45,0.00,,,7.56,WUHU216DAVISWMX,2013-06-04 17:37:00,
2013-06-04 13:42:00,58.1,36.8,28.22,West,262,4.0,11.0,45,0.00,,,7.56,WUHU216DAVISWMX,2013-06-04 17:42:00,
2013-06-04 13:48:00,58.4,37.1,28.22,West,281,0.0,9.0,45,0.00,,,7.56,WUHU216DAVISWMX,2013-06-04 17:48:00,
2013-06-04 13:53:00,59.3,37.3,28.22,West,262,6.0,8.0,44,0.00,,,7.56,WUHU216DAVISWMX,2013-06-04 17:53:00,
2013-06-04 13:58:00,59.7,37.0,28.22,WNW,298,0.0,8.0,43,0.00,,,7.56,WUHU216DAVISWMX,2013-06-04 17:58:00,
2013-06-04 14:03:00,60.0,36.7,28.22,West,262,5.0,8.0,42,0.00,,,7.56,WUHU216DAVISWMX,2013-06-04 18:03:00,
2013-06-04 14:08:00,59.2,37.8,28.22,WNW,288,0.0,7.0,45,0.00,,,7.56,WUHU216DAVISWMX,2013-06-04 18:08:00,
2013-06-04 14:13:00,59.6,38.7,28.22,SSE,147,0.0,7.0,46,0.00,,,7.56,WUHU216DAVISWMX,2013-06-04 18:13:00,
2013-06-04 14:18:00,60.5,39.6,28.21,NNE,25,0.0,5.0,46,0.00,,,7.56,WUHU216DAVISWMX,2013-06-04 18:18:00,
2013-06-04 14:23:00,61.2,39.0,28.22,NW,311,4.0,6.0,44,0.00,,,7.56,WUHU216DAVISWMX,2013-06-04 18:23:00,
2013-06-04 14:28:00,61.9,38.4,28.22,SSW,196,0.0,6.0,42,0.00,,,7.56,WUHU216DAVISWMX,2013-06-04 18:28:00,
2013-06-04 14:33:00,61.0,40.0,28.21,ENE,57,4.0,5.0,46,0.00,,,7.56,WUHU216DAVISWMX,2013-06-04 18:33:00,
2013-06-04 14:38:00,60.7,39.2,28.21,NE,44,9.0,9.0,45,0.00,,,7.56,WUHU216DAVISWMX,2013-06-04 18:38:00,
2013-06-04 14:43:00,61.0,39.4,28.22,WNW,295,1.0,11.0,45,0.00,,,7.56,WUHU216DAVISWMX,2013-06-04 18:43:00,
2013-06-04 14:48:00,61.1,38.3,28.22,WNW,303,1.0,11.0,43,0.00,,,7.56,WUHU216DAVISWMX,2013-06-04 18:48:00,
2013-06-04 14:53:00,61.0,37.0,28.22,WNW,303,2.0,10.0,41,0.00,,,7.56,WUHU216DAVISWMX,2013-06-04 18:53:00,
2013-06-04 14:58:00,61.0,38.2,28.22,NE,39,3.0,10.0,43,0.00,,,7.56,WUHU216DAVISWMX,2013-06-04 18:58:00,
2013-06-04 15:03:00,61.1,37.7,28.22,North,352,0.0,10.0,42,0.00,,,7.56,WUHU216DAVISWMX,2013-06-04 19:03:00,
2013-06-04 15:08:00,61.1,38.3,28.22,WNW,289,0.0,12.0,43,0.00,,,7.56,WUHU216DAVISWMX,2013-06-04 19:08:00,
2013-06-04 15:13:00,61.2,37.8,28.22,NW,326,0.0,12.0,42,0.00,,,7.56,WUHU216DAVISWMX,2013-06-04 19:13:00,
2013-06-04 15:18:00,61.7,38.9,28.22,WSW,240,0.0,4.0,43,0.00,,,7.56,WUHU216DAVISWMX,2013-06-04 19:18:00,
2013-06-04 15:23:00,62.0,39.7,28.22,WNW,284,6.0,11.0,44,0.00,,,7.56,WUHU216DAVISWMX,2013-06-04 19:23:00,
2013-06-04 15:28:00,61.6,39.4,28.22,North,358,5.0,11.0,44,0.00,,,7.56,WUHU216DAVISWMX,2013-06-04 19:28:00,
2013-06-04 15:33:00,61.3,39.7,28.21,West,262,5.0,13.0,45,0.00,,,7.56,WUHU216DAVISWMX,2013-06-04 19:33:00,
2013-06-04 15:38:00,61.0,40.0,28.21,NW,306,4.0,13.0,46,0.00,,,7.56,WUHU216DAVISWMX,2013-06-04 19:38:00,
2013-06-04 15:43:00,61.0,40.6,28.21,NNW,347,0.0,11.0,47,0.00,,,7.56,WUHU216DAVISWMX,2013-06-04 19:43:00,
2013-06-04 15:48:00,61.2,40.2,28.21,WNW,282,0.0,11.0,46,0.00,,,7.56,WUHU216DAVISWMX,2013-06-04 19:48:00,
2013-06-04 15:53:00,57.0,36.3,28.21,NW,306,5.0,10.0,46,0.00,,,7.56,WUHU216DAVISWMX,2013-06-04 19:53:00,
2013-06-04 15:58:00,60.2,39.3,28.21,WSW,253,2.0,10.0,46,0.00,,,7.56,WUHU216DAVISWMX,2013-06-04 19:58:00,
2013-06-04 16:03:00,60.0,39.7,28.21,NNW,348,5.0,9.0,47,0.00,,,7.56,WUHU216DAVISWMX,2013-06-04 20:03:00,
2013-06-04 16:08:00,60.1,39.8,28.20,NNE,22,6.0,11.0,47,0.00,,,7.56,WUHU216DAVISWMX,2013-06-04 20:08:00,
2013-06-04 16:13:00,60.1,39.8,28.20,NNW,346,0.0,11.0,47,0.00,,,7.56,WUHU216DAVISWMX,2013-06-04 20:13:00,
2013-06-04 16:18:00,60.3,39.9,28.20,North,358,0.0,7.0,47,0.00,,,7.56,WUHU216DAVISWMX,2013-06-04 20:18:00,
2013-06-04 16:23:00,60.3,39.9,28.20,NNW,344,5.0,9.0,47,0.00,,,7.56,WUHU216DAVISWMX,2013-06-04 20:23:00,
2013-06-04 16:28:00,59.4,39.1,28.20,North,354,0.0,9.0,47,0.00,,,7.56,WUHU216DAVISWMX,2013-06-04 20:28:00,
2013-06-04 16:33:00,58.7,38.5,28.20,East,92,2.0,8.0,47,0.00,,,7.56,WUHU216DAVISWMX,2013-06-04 20:33:00,
2013-06-04 16:38:00,58.8,39.7,28.20,NE,41,0.0,8.0,49,0.00,,,7.56,WUHU216DAVISWMX,2013-06-04 20:38:00,
2013-06-04 16:43:00,58.6,38.4,28.21,NE,34,0.0,6.0,47,0.00,,,7.56,WUHU216DAVISWMX,2013-06-04 20:43:00,
2013-06-04 16:48:00,58.8,39.1,28.20,SSE,155,0.0,10.0,48,0.00,,,7.56,WUHU216DAVISWMX,2013-06-04 20:48:00,
2013-06-04 16:53:00,58.9,38.7,28.20,WNW,286,5.0,12.0,47,0.00,,,7.56,WUHU216DAVISWMX,2013-06-04 20:53:00,
2013-06-04 16:58:00,59.5,39.2,28.20,WSW,253,7.0,12.0,47,0.00,,,7.56,WUHU216DAVISWMX,2013-06-04 20:58:00,
2013-06-04 17:03:00,61.1,41.2,28.20,North,349,3.0,12.0,48,0.00,,,7.56,WUHU216DAVISWMX,2013-06-04 21:03:00,
2013-06-04 17:08:00,59.9,39.6,28.20,North,358,0.0,10.0,47,0.00,,,7.56,WUHU216DAVISWMX,2013-06-04 21:08:00,
2013-06-04 17:13:00,60.3,40.5,28.20,West,268,0.0,8.0,48,0.00,,,7.56,WUHU216DAVISWMX,2013-06-04 21:13:00,
2013-06-04 17:18:00,60.2,40.4,28.20,NNW,335,2.0,7.0,48,0.00,,,7.56,WUHU216DAVISWMX,2013-06-04 21:18:00,
2013-06-04 17:23:00,60.8,40.4,28.20,WSW,238,3.0,7.0,47,0.00,,,7.56,WUHU216DAVISWMX,2013-06-04 21:23:00,
2013-06-04 17:28:00,61.5,40.5,28.20,WNW,292,0.0,7.0,46,0.00,,,7.56,WUHU216DAVISWMX,2013-06-04 21:28:00,
2013-06-04 17:33:00,61.7,41.2,28.20,WNW,292,0.0,7.0,47,0.00,,,7.56,WUHU216DAVISWMX,2013-06-04 21:33:00,
2013-06-04 17:38:00,61.9,42.0,28.20,WNW,293,0.0,2.0,48,0.00,,,7.56,WUHU216DAVISWMX,2013-06-04 21:38:00,
2013-06-04 17:43:00,62.3,41.8,28.20,NW,317,4.0,9.0,47,0.00,,,7.56,WUHU216DAVISWMX,2013-06-04 21:43:00,
2013-06-04 17:48:00,61.8,41.3,28.20,NW,323,0.0,9.0,47,0.00,,,7.56,WUHU216DAVISWMX,2013-06-04 21:48:00,
2013-06-04 17:53:00,61.3,41.4,28.20,North,353,2.0,5.0,48,0.00,,,7.56,WUHU216DAVISWMX,2013-06-04 21:53:00,
2013-06-04 17:58:00,61.3,41.4,28.20,NW,323,0.0,7.0,48,0.00,,,7.56,WUHU216DAVISWMX,2013-06-04 21:58:00,
2013-06-04 18:03:00,61.2,41.3,28.20,NW,317,0.0,7.0,48,0.00,,,7.56,WUHU216DAVISWMX,2013-06-04 22:03:00,
2013-06-04 18:08:00,59.4,39.1,28.21,NW,308,0.0,6.0,47,0.00,,,7.56,WUHU216DAVISWMX,2013-06-04 22:08:00,
2013-06-04 18:13:00,60.2,41.0,28.21,NW,307,0.0,4.0,49,0.00,,,7.56,WUHU216DAVISWMX,2013-06-04 22:13:00,
2013-06-04 18:18:00,59.9,40.1,28.21,North,352,0.0,5.0,48,0.00,,,7.56,WUHU216DAVISWMX,2013-06-04 22:18:00,
2013-06-04 18:23:00,59.6,40.4,28.21,NW,316,4.0,6.0,49,0.00,,,7.56,WUHU216DAVISWMX,2013-06-04 22:23:00,
2013-06-04 18:28:00,59.1,40.5,28.21,NNW,336,7.0,8.0,50,0.00,,,7.56,WUHU216DAVISWMX,2013-06-04 22:28:00,
2013-06-04 18:33:00,58.2,39.6,28.21,North,3,5.0,9.0,50,0.00,,,7.56,WUHU216DAVISWMX,2013-06-04 22:33:00,
2013-06-04 18:38:00,57.7,39.2,28.21,North,358,0.0,9.0,50,0.00,,,7.56,WUHU216DAVISWMX,2013-06-04 22:38:00,
2013-06-04 18:43:00,57.9,39.4,28.21,NNW,345,0.0,6.0,50,0.00,,,7.56,WUHU216DAVISWMX,2013-06-04 22:43:00,
2013-06-04 18:48:00,58.0,39.5,28.21,NNW,331,2.0,6.0,50,0.00,,,7.56,WUHU216DAVISWMX,2013-06-04 22:48:00,
2013-06-04 18:53:00,57.6,39.6,28.21,NW,318,0.0,7.0,51,0.00,,,7.56,WUHU216DAVISWMX,2013-06-04 22:53:00,
2013-06-04 18:58:00,58.1,39.6,28.21,NW,320,0.0,7.0,50,0.00,,,7.56,WUHU216DAVISWMX,2013-06-04 22:58:00,
2013-06-04 19:03:00,59.1,40.5,28.22,NNW,344,4.0,9.0,50,0.00,,,7.56,WUHU216DAVISWMX,2013-06-04 23:03:00,
2013-06-04 19:08:00,58.3,39.7,28.22,NW,310,3.0,9.0,50,0.00,,,7.56,WUHU216DAVISWMX,2013-06-04 23:08:00,
2013-06-04 19:13:00,58.2,40.2,28.22,NW,310,0.0,8.0,51,0.00,,,7.56,WUHU216DAVISWMX,2013-06-04 23:13:00,
2013-06-04 19:18:00,57.8,39.8,28.22,NW,315,0.0,6.0,51,0.00,,,7.56,WUHU216DAVISWMX,2013-06-04 23:18:00,
2013-06-04 19:23:00,58.1,40.6,28.22,NW,318,0.0,6.0,52,0.00,,,7.56,WUHU216DAVISWMX,2013-06-04 23:23:00,
2013-06-04 19:28:00,57.6,40.1,28.22,NW,319,0.0,6.0,52,0.00,,,7.56,WUHU216DAVISWMX,2013-06-04 23:28:00,
2013-06-04 19:33:00,59.0,41.4,28.23,NNW,341,0.0,5.0,52,0.00,,,7.56,WUHU216DAVISWMX,2013-06-04 23:33:00,
2013-06-04 19:38:00,58.8,41.8,28.23,NNW,341,2.0,5.0,53,0.00,,,7.56,WUHU216DAVISWMX,2013-06-04 23:38:00,
2013-06-04 19:43:00,58.6,41.6,28.23,NW,316,0.0,6.0,53,0.00,,,7.56,WUHU216DAVISWMX,2013-06-04 23:43:00,
2013-06-04 19:48:00,58.4,41.4,28.22,NW,319,0.0,6.0,53,0.00,,,7.56,WUHU216DAVISWMX,2013-06-04 23:48:00,
2013-06-04 19:53:00,57.8,41.3,28.23,NW,319,0.0,5.0,54,0.00,,,7.56,WUHU216DAVISWMX,2013-06-04 23:53:00,
2013-06-04 19:58:00,57.6,41.6,28.23,NW,307,0.0,3.0,55,0.00,,,7.56,WUHU216DAVISWMX,2013-06-04 23:58:00,
2013-06-04 20:03:00,57.0,41.1,28.23,NW,320,0.0,4.0,55,0.00,,,7.56,WUHU216DAVISWMX,2013-06-05 00:03:00,
2013-06-04 20:08:00,57.0,41.1,28.23,NW,320,0.0,4.0,55,0.00,,,7.56,WUHU216DAVISWMX,2013-06-05 00:08:00,
2013-06-04 20:13:00,56.1,40.7,28.23,NW,320,0.0,3.0,56,0.00,,,7.56,WUHU216DAVISWMX,2013-06-05 00:13:00,
2013-06-04 20:18:00,56.7,41.3,28.23,NW,319,0.0,2.0,56,0.00,,,7.56,WUHU216DAVISWMX,2013-06-05 00:18:00,
2013-06-04 20:23:00,56.0,41.1,28.23,NW,320,0.0,1.0,57,0.00,,,7.56,WUHU216DAVISWMX,2013-06-05 00:23:00,
2013-06-04 20:28:00,56.7,41.7,28.23,NW,320,0.0,3.0,57,0.00,,,7.56,WUHU216DAVISWMX,2013-06-05 00:28:00,
2013-06-04 20:33:00,56.6,42.1,28.23,NW,320,0.0,3.0,58,0.00,,,7.56,WUHU216DAVISWMX,2013-06-05 00:33:00,
2013-06-04 20:38:00,56.4,41.9,28.23,NW,320,0.0,1.0,58,0.00,,,7.56,WUHU216DAVISWMX,2013-06-05 00:38:00,
2013-06-04 20:43:00,56.3,41.8,28.23,NW,320,0.0,4.0,58,0.00,,,7.56,WUHU216DAVISWMX,2013-06-05 00:43:00,
2013-06-04 20:48:00,56.1,41.6,28.24,NW,320,0.0,4.0,58,0.00,,,7.56,WUHU216DAVISWMX,2013-06-05 00:48:00,
2013-06-04 20:53:00,55.2,41.2,28.23,NW,320,0.0,3.0,59,0.00,,,7.56,WUHU216DAVISWMX,2013-06-05 00:53:00,
2013-06-04 20:58:00,55.1,41.1,28.23,NW,320,0.0,2.0,59,0.00,,,7.56,WUHU216DAVISWMX,2013-06-05 00:58:00,
2013-06-04 21:03:00,55.4,41.9,28.24,NW,320,0.0,1.0,60,0.00,,,7.56,WUHU216DAVISWMX,2013-06-05 01:03:00,
2013-06-04 21:08:00,54.2,42.8,28.24,NW,320,0.0,0.0,65,0.00,,,7.56,WUHU216DAVISWMX,2013-06-05 01:08:00,
2013-06-04 21:13:00,53.7,42.7,28.24,NW,320,0.0,0.0,66,0.00,,,7.56,WUHU216DAVISWMX,2013-06-05 01:13:00,
2013-06-04 21:18:00,52.3,42.5,28.24,NW,320,0.0,0.0,69,0.00,,,7.56,WUHU216DAVISWMX,2013-06-05 01:18:00,
2013-06-04 21:23:00,52.5,42.7,28.24,NW,320,0.0,0.0,69,0.00,,,7.56,WUHU216DAVISWMX,2013-06-05 01:23:00,
2013-06-04 21:28:00,52.0,43.0,28.24,NW,320,0.0,0.0,71,0.00,,,7.56,WUHU216DAVISWMX,2013-06-05 01:28:00,
2013-06-04 21:33:00,51.4,42.8,28.24,NW,320,0.0,0.0,72,0.00,,,7.56,WUHU216DAVISWMX,2013-06-05 01:33:00,
2013-06-04 21:38:00,51.1,43.2,28.24,NW,320,0.0,0.0,74,0.00,,,7.56,WUHU216DAVISWMX,2013-06-05 01:38:00,
2013-06-04 21:43:00,50.5,42.9,28.25,NW,320,0.0,0.0,75,0.00,,,7.56,WUHU216DAVISWMX,2013-06-05 01:43:00,
2013-06-04 21:48:00,50.0,42.8,28.25,NW,320,0.0,0.0,76,0.00,,,7.56,WUHU216DAVISWMX,2013-06-05 01:48:00,
2013-06-04 21:53:00,49.8,42.9,28.25,NW,320,0.0,3.0,77,0.00,,,7.56,WUHU216DAVISWMX,2013-06-05 01:53:00,
2013-06-04 21:58:00,49.7,43.5,28.25,NW,320,0.0,3.0,79,0.00,,,7.56,WUHU216DAVISWMX,2013-06-05 01:58:00,
2013-06-04 22:03:00,49.2,43.0,28.25,NW,320,0.0,0.0,79,0.00,,,7.56,WUHU216DAVISWMX,2013-06-05 02:03:00,
2013-06-04 22:08:00,48.9,42.7,28.25,NW,320,0.0,2.0,79,0.00,,,7.56,WUHU216DAVISWMX,2013-06-05 02:08:00,
2013-06-04 22:13:00,48.5,42.6,28.25,NW,320,0.0,2.0,80,0.00,,,7.56,WUHU216DAVISWMX,2013-06-05 02:13:00,
2013-06-04 22:18:00,48.6,42.7,28.25,NW,320,0.0,0.0,80,0.00,,,7.56,WUHU216DAVISWMX,2013-06-05 02:18:00,
2013-06-04 22:23:00,48.3,42.8,28.25,NW,320,0.0,0.0,81,0.00,,,7.56,WUHU216DAVISWMX,2013-06-05 02:23:00,
2013-06-04 22:28:00,48.2,43.0,28.25,NW,319,0.0,0.0,82,0.00,,,7.56,WUHU216DAVISWMX,2013-06-05 02:28:00,
2013-06-04 22:33:00,48.2,43.3,28.25,NW,319,0.0,1.0,83,0.00,,,7.56,WUHU216DAVISWMX,2013-06-05 02:33:00,
2013-06-04 22:38:00,47.9,43.0,28.25,NW,319,0.0,1.0,83,0.00,,,7.56,WUHU216DAVISWMX,2013-06-05 02:38:00,
2013-06-04 22:43:00,47.6,42.7,28.25,NNW,334,0.0,4.0,83,0.00,,,7.56,WUHU216DAVISWMX,2013-06-05 02:43:00,
2013-06-04 22:48:00,47.4,42.5,28.25,NNW,334,0.0,5.0,83,0.00,,,7.56,WUHU216DAVISWMX,2013-06-05 02:48:00,
2013-06-04 22:53:00,47.2,42.6,28.25,NNW,334,0.0,5.0,84,0.00,,,7.56,WUHU216DAVISWMX,2013-06-05 02:53:00,
2013-06-04 22:58:00,47.1,42.8,28.25,NE,41,4.0,4.0,85,0.00,,,7.56,WUHU216DAVISWMX,2013-06-05 02:58:00,
2013-06-04 23:03:00,46.8,42.5,28.25,NE,49,0.0,4.0,85,0.00,,,7.56,WUHU216DAVISWMX,2013-06-05 03:03:00,
2013-06-04 23:08:00,46.6,42.3,28.25,ENE,60,0.0,4.0,85,0.00,,,7.56,WUHU216DAVISWMX,2013-06-05 03:08:00,
2013-06-04 23:13:00,46.4,42.4,28.25,ENE,60,0.0,2.0,86,0.00,,,7.56,WUHU216DAVISWMX,2013-06-05 03:13:00,
2013-06-04 23:18:00,46.3,42.3,28.25,ENE,60,0.0,0.0,86,0.00,,,7.56,WUHU216DAVISWMX,2013-06-05 03:18:00,
2013-06-04 23:23:00,46.2,42.8,28.25,ENE,60,0.0,0.0,88,0.00,,,7.56,WUHU216DAVISWMX,2013-06-05 03:23:00,
2013-06-04 23:28:00,46.1,43.0,28.25,ENE,60,0.0,0.0,89,0.00,,,7.56,WUHU216DAVISWMX,2013-06-05 03:28:00,
2013-06-04 23:33:00,45.9,42.8,28.26,ENE,60,0.0,0.0,89,0.00,,,7.56,WUHU216DAVISWMX,2013-06-05 03:33:00,
2013-06-04 23:38:00,45.9,42.8,28.25,ENE,60,0.0,0.0,89,0.00,,,7.56,WUHU216DAVISWMX,2013-06-05 03:38:00,
2013-06-04 23:43:00,45.8,42.7,28.25,ENE,60,0.0,0.0,89,0.00,,,7.56,WUHU216DAVISWMX,2013-06-05 03:43:00,
2013-06-04 23:48:00,45.6,42.8,28.26,ENE,60,0.0,0.0,90,0.00,,,7.56,WUHU216DAVISWMX,2013-06-05 03:48:00,
2013-06-04 23:53:00,45.5,42.4,28.25,ENE,60,0.0,0.0,89,0.00,,,7.56,WUHU216DAVISWMX,2013-06-05 03:53:00,
2013-06-04 23:58:00,45.3,42.5,28.26,ENE,60,0.0,0.0,90,0.00,,,7.56,WUHU216DAVISWMX,2013-06-05 03:58:00,